createdAt,value
2023-02-12T00:01:17.456Z,6.20
2023-02-12T00:03:44.172Z,4.10
2023-02-12T00:06:14.820Z,3.40
2023-02-12T00:08:43.409Z,2.00
2023-02-12T00:11:13.469Z,4.50
2023-02-12T00:13:41.409Z,2.10
2023-02-12T00:16:10.542Z,2.90
2023-02-12T00:18:37.461Z,3.70
2023-02-12T00:21:05.310Z,2.70
2023-02-12T00:23:32.126Z,3.20
2023-02-12T00:25:59.191Z,7.10
2023-02-12T00:28:26.806Z,5.60
2023-02-12T00:30:55.171Z,2.20
2023-02-12T00:33:21.918Z,3.20
2023-02-12T00:35:57.829Z,3.80
2023-02-12T00:38:24.832Z,6.70
2023-02-12T00:40:51.817Z,7.60
2023-02-12T00:43:19.434Z,3.10
2023-02-12T00:45:46.810Z,4.50
2023-02-12T00:48:14.873Z,4.90
2023-02-12T00:50:45.209Z,4.00
2023-02-12T00:53:12.396Z,3.40
2023-02-12T00:55:39.507Z,2.90
2023-02-12T00:58:07.783Z,5.00
2023-02-12T01:00:35.780Z,4.70
2023-02-12T01:03:04.950Z,4.90
2023-02-12T01:05:34.685Z,4.70
2023-02-12T01:08:03.669Z,5.10
2023-02-12T01:10:31.018Z,5.10
2023-02-12T01:12:58.114Z,6.30
2023-02-12T01:15:26.409Z,4.60
2023-02-12T01:17:53.507Z,2.90
2023-02-12T01:20:22.494Z,3.00
2023-02-12T01:22:49.689Z,2.90
2023-02-12T01:25:20.096Z,2.90
2023-02-12T01:27:47.224Z,4.00
2023-02-12T01:30:15.660Z,3.50
2023-02-12T01:32:43.456Z,5.50
2023-02-12T01:35:11.347Z,5.00
2023-02-12T01:37:40.888Z,3.90
2023-02-12T01:40:09.094Z,3.40
2023-02-12T01:42:35.850Z,3.70
2023-02-12T01:45:32.357Z,7.00
2023-02-12T01:47:59.895Z,4.30
2023-02-12T01:50:26.633Z,3.30
2023-02-12T01:52:57.277Z,2.60
2023-02-12T01:55:24.317Z,2.80
2023-02-12T01:57:51.523Z,3.40
2023-02-12T02:00:22.541Z,3.90
2023-02-12T02:02:56.022Z,1.70
2023-02-12T02:05:43.551Z,4.70
2023-02-12T02:08:12.239Z,3.00
2023-02-12T02:10:38.842Z,2.60
2023-02-12T02:13:24.254Z,3.20
2023-02-12T02:15:56.988Z,5.00
2023-02-12T02:18:55.377Z,2.80
2023-02-12T02:21:50.120Z,3.90
2023-02-12T02:24:32.883Z,4.40
2023-02-12T02:27:18.307Z,2.40
2023-02-12T02:30:09.994Z,3.00
2023-02-12T02:33:15.390Z,3.10
2023-02-12T02:36:08.671Z,3.00
2023-02-12T02:38:51.395Z,3.50
2023-02-12T02:41:30.671Z,4.20
2023-02-12T02:43:59.295Z,2.90
2023-02-12T02:46:40.136Z,2.50
2023-02-12T02:49:13.124Z,4.60
2023-02-12T02:51:45.424Z,3.70
2023-02-12T02:54:17.794Z,2.80
2023-02-12T02:56:47.814Z,1.90
2023-02-12T02:59:21.449Z,1.60
2023-02-12T03:01:57.531Z,3.10
2023-02-12T03:04:32.983Z,3.30
2023-02-12T03:07:09.462Z,2.00
2023-02-12T03:09:59.569Z,3.60
2023-02-12T03:12:36.541Z,2.40
2023-02-12T03:15:09.804Z,4.40
2023-02-12T03:17:44.929Z,2.90
2023-02-12T03:20:22.296Z,3.30
2023-02-12T03:22:55.335Z,2.20
2023-02-12T03:25:33.975Z,4.90
2023-02-12T03:28:08.354Z,2.80
2023-02-12T03:31:17.029Z,3.10
2023-02-12T03:33:50.543Z,2.90
2023-02-12T03:36:33.906Z,2.70
2023-02-12T03:39:11.644Z,1.90
2023-02-12T03:41:46.574Z,2.90
2023-02-12T03:44:45.893Z,3.10
2023-02-12T03:47:44.273Z,3.20
2023-02-12T03:50:15.921Z,6.40
2023-02-12T03:52:43.386Z,3.00
2023-02-12T03:55:12.748Z,2.80
2023-02-12T03:57:47.499Z,4.50
2023-02-12T04:00:22.249Z,2.20
2023-02-12T04:02:52.196Z,2.30
2023-02-12T04:05:27.172Z,4.50
2023-02-12T04:07:57.071Z,3.50
2023-02-12T04:11:04.060Z,2.60
2023-02-12T04:13:57.159Z,3.00
2023-02-12T04:16:37.608Z,2.60
2023-02-12T04:19:05.418Z,2.80
2023-02-12T04:22:03.624Z,2.00
2023-02-12T04:24:56.347Z,3.90
2023-02-12T04:27:41.130Z,2.90
2023-02-12T04:30:14.198Z,2.70
2023-02-12T04:32:46.370Z,3.00
2023-02-12T04:35:20.889Z,1.80
2023-02-12T04:38:08.359Z,2.60
2023-02-12T04:40:38.177Z,4.90
2023-02-12T04:43:05.347Z,2.10
2023-02-12T04:45:34.985Z,2.30
2023-02-12T04:48:02.326Z,3.60
2023-02-12T04:50:41.843Z,2.00
2023-02-12T04:53:09.903Z,2.60
2023-02-12T04:55:36.923Z,3.60
2023-02-12T04:58:04.477Z,3.20
2023-02-12T05:00:36.596Z,2.00
2023-02-12T05:03:03.489Z,4.00
2023-02-12T05:05:30.216Z,3.20
2023-02-12T05:07:57.099Z,3.20
2023-02-12T05:10:24.311Z,3.80
2023-02-12T05:12:54.990Z,3.70
2023-02-12T05:15:22.481Z,2.70
2023-02-12T05:17:49.432Z,3.30
2023-02-12T05:20:16.327Z,3.90
2023-02-12T05:22:42.968Z,4.20
2023-02-12T05:25:09.847Z,4.40
2023-02-12T05:27:36.644Z,3.40
2023-02-12T05:30:05.466Z,6.20
2023-02-12T05:32:32.334Z,5.10
2023-02-12T05:34:58.898Z,5.00
2023-02-12T05:37:25.821Z,4.10
2023-02-12T05:39:53.260Z,4.90
2023-02-12T05:42:19.826Z,5.90
2023-02-12T05:44:46.497Z,3.70
2023-02-12T05:47:13.955Z,4.50
2023-02-12T05:49:42.249Z,5.00
2023-02-12T05:52:09.087Z,3.10
2023-02-12T05:54:35.865Z,3.80
2023-02-12T05:57:02.722Z,3.60
2023-02-12T05:59:29.692Z,2.90
2023-02-12T06:01:56.360Z,2.30
2023-02-12T06:04:25.727Z,3.40
2023-02-12T06:06:53.701Z,5.20
2023-02-12T06:09:21.137Z,3.80
2023-02-12T06:11:47.928Z,12.60
2023-02-12T06:14:18.363Z,11.00
2023-02-12T06:16:51.310Z,6.60
2023-02-12T06:19:19.536Z,21.10
2023-02-12T06:21:46.878Z,96.90
2023-02-12T06:24:15.690Z,71.00
2023-02-12T06:26:42.686Z,54.50
2023-02-12T06:29:09.264Z,21.30
2023-02-12T06:31:37.106Z,29.00
2023-02-12T06:34:08.033Z,10.60
2023-02-12T06:36:38.339Z,4.40
2023-02-12T06:39:05.330Z,6.30
2023-02-12T06:41:32.235Z,5.20
2023-02-12T06:43:59.197Z,14.30
2023-02-12T06:46:26.218Z,12.30
2023-02-12T06:48:58.746Z,16.70
2023-02-12T06:51:27.171Z,15.10
2023-02-12T06:53:55.022Z,7.20
2023-02-12T06:56:23.852Z,5.30
2023-02-12T06:59:00.664Z,4.60
2023-02-12T07:01:29.558Z,4.70
2023-02-12T07:03:59.144Z,6.40
2023-02-12T07:06:28.189Z,4.30
2023-02-12T07:08:56.470Z,4.90
2023-02-12T07:11:28.567Z,6.80
2023-02-12T07:13:55.527Z,8.60
2023-02-12T07:16:22.896Z,6.30
2023-02-12T07:18:49.799Z,7.30
2023-02-12T07:21:17.945Z,7.30
2023-02-12T07:23:51.309Z,5.60
2023-02-12T07:26:19.497Z,4.80
2023-02-12T07:28:46.285Z,5.50
2023-02-12T07:31:15.682Z,3.30
2023-02-12T07:33:43.641Z,3.70
2023-02-12T07:36:16.637Z,3.10
2023-02-12T07:38:44.009Z,7.30
2023-02-12T07:41:19.855Z,10.60
2023-02-12T07:43:50.095Z,9.80
2023-02-12T07:46:40.075Z,6.00
2023-02-12T07:49:10.245Z,5.10
2023-02-12T07:51:37.550Z,6.60
2023-02-12T07:54:04.397Z,5.40
2023-02-12T07:56:34.693Z,3.80
2023-02-12T07:59:11.986Z,4.40
2023-02-12T08:01:46.119Z,6.50
2023-02-12T08:04:14.907Z,5.60
2023-02-12T08:06:43.979Z,2.80
2023-02-12T08:09:14.287Z,3.50
2023-02-12T08:11:42.880Z,4.80
2023-02-12T08:14:15.311Z,3.50
2023-02-12T08:16:44.616Z,4.40
2023-02-12T08:19:19.470Z,4.60
2023-02-12T08:21:52.439Z,3.30
2023-02-12T08:24:21.682Z,7.20
2023-02-12T08:26:48.448Z,3.20
2023-02-12T08:29:27.394Z,3.40
2023-02-12T08:31:57.399Z,4.10
2023-02-12T08:34:29.541Z,3.80
2023-02-12T08:36:57.489Z,4.60
2023-02-12T08:39:25.855Z,4.80
2023-02-12T08:41:56.993Z,4.00
2023-02-12T08:44:23.955Z,5.50
2023-02-12T08:46:52.198Z,3.70
2023-02-12T08:49:25.392Z,5.50
2023-02-12T08:51:54.879Z,6.80
2023-02-12T08:54:24.536Z,4.40
2023-02-12T08:56:56.238Z,5.20
2023-02-12T08:59:22.878Z,7.90
2023-02-12T09:01:51.715Z,4.90
2023-02-12T09:04:24.390Z,5.10
2023-02-12T09:06:52.062Z,3.90
2023-02-12T09:09:19.188Z,5.00
2023-02-12T09:11:46.875Z,3.30
2023-02-12T09:14:15.680Z,5.30
2023-02-12T09:16:42.473Z,5.60
2023-02-12T09:19:12.442Z,7.50
2023-02-12T09:21:39.414Z,5.20
2023-02-12T09:24:06.516Z,5.00
2023-02-12T09:26:33.333Z,6.50
2023-02-12T09:29:02.305Z,4.70
2023-02-12T09:31:31.526Z,4.90
2023-02-12T09:34:04.395Z,7.70
2023-02-12T09:36:32.192Z,5.20
2023-02-12T09:38:59.783Z,5.50
2023-02-12T09:41:47.828Z,5.40
2023-02-12T09:44:26.096Z,5.70
2023-02-12T09:47:05.090Z,6.00
2023-02-12T09:49:52.017Z,5.90
2023-02-12T09:52:24.014Z,6.80
2023-02-12T09:54:50.835Z,4.80
2023-02-12T09:57:21.743Z,5.50
2023-02-12T09:59:57.900Z,4.80
2023-02-12T10:02:24.981Z,8.90
2023-02-12T10:05:01.235Z,5.10
2023-02-12T10:08:01.126Z,8.20
2023-02-12T10:10:33.763Z,6.90
2023-02-12T10:13:08.487Z,4.90
2023-02-12T10:16:01.083Z,5.60
2023-02-12T10:18:47.006Z,6.40
2023-02-12T10:21:33.188Z,5.50
2023-02-12T10:23:59.967Z,7.90
2023-02-12T10:26:36.042Z,5.50
2023-02-12T10:29:21.614Z,5.40
2023-02-12T10:31:53.984Z,5.10
2023-02-12T10:34:26.355Z,7.30
2023-02-12T10:37:01.258Z,4.70
2023-02-12T10:40:36.101Z,6.00
2023-02-12T10:43:02.833Z,4.50
2023-02-12T10:45:35.801Z,6.60
2023-02-12T10:48:26.821Z,8.20
2023-02-12T10:51:09.166Z,7.10
2023-02-12T10:53:37.312Z,6.60
2023-02-12T10:56:19.633Z,7.20
2023-02-12T10:58:49.355Z,6.70
2023-02-12T11:01:39.063Z,4.90
2023-02-12T11:04:29.705Z,5.00
2023-02-12T11:07:03.302Z,4.80
2023-02-12T11:09:44.881Z,5.00
2023-02-12T11:12:32.820Z,6.30
2023-02-12T11:15:03.760Z,7.90
2023-02-12T11:17:37.371Z,5.30
2023-02-12T11:20:15.490Z,6.50
2023-02-12T11:23:05.855Z,7.60
2023-02-12T11:25:37.441Z,6.00
2023-02-12T11:28:12.723Z,8.30
2023-02-12T11:30:52.898Z,6.80
2023-02-12T11:33:25.869Z,5.10
2023-02-12T11:36:00.428Z,7.50
2023-02-12T11:38:31.787Z,8.30
2023-02-12T11:41:30.429Z,8.10
2023-02-12T11:43:57.470Z,7.90
2023-02-12T11:46:26.334Z,6.90
2023-02-12T11:48:56.158Z,9.30
2023-02-12T11:51:29.673Z,8.20
2023-02-12T11:54:02.395Z,8.20
2023-02-12T11:56:49.478Z,7.30
2023-02-12T11:59:27.286Z,10.20
2023-02-12T12:01:58.552Z,7.90
2023-02-12T12:04:31.237Z,9.70
2023-02-12T12:07:02.282Z,6.10
2023-02-12T12:09:47.040Z,6.00
2023-02-12T12:12:29.065Z,5.10
2023-02-12T12:16:00.890Z,8.90
2023-02-12T12:18:55.176Z,7.00
2023-02-12T12:21:57.390Z,6.70
2023-02-12T12:24:52.511Z,7.20
2023-02-12T12:27:54.367Z,9.90
2023-02-12T12:30:50.684Z,8.70
2023-02-12T12:33:40.764Z,7.60
2023-02-12T12:36:13.633Z,7.30
2023-02-12T12:38:51.344Z,7.60
2023-02-12T12:41:38.957Z,7.30
2023-02-12T12:44:14.719Z,7.00
2023-02-12T12:46:47.665Z,6.40
2023-02-12T12:49:35.723Z,6.00
2023-02-12T12:52:08.524Z,7.20
2023-02-12T12:54:45.167Z,6.40
2023-02-12T12:57:25.616Z,7.20
2023-02-12T13:00:15.632Z,7.00
2023-02-12T13:02:51.377Z,8.30
2023-02-12T13:05:40.179Z,6.00
2023-02-12T13:08:12.993Z,8.30
2023-02-12T13:10:55.837Z,7.60
2023-02-12T13:13:33.544Z,7.40
2023-02-12T13:16:25.777Z,9.60
2023-02-12T13:19:29.482Z,6.30
2023-02-12T13:22:10.384Z,9.30
2023-02-12T13:25:09.785Z,8.30
2023-02-12T13:27:40.283Z,7.50
2023-02-12T13:30:38.207Z,9.60
2023-02-12T13:33:22.034Z,9.10
2023-02-12T13:35:55.640Z,7.50
2023-02-12T13:38:28.046Z,8.60
2023-02-12T13:41:01.657Z,8.00
2023-02-12T13:43:39.069Z,8.00
2023-02-12T13:46:14.805Z,10.90
2023-02-12T13:48:49.829Z,12.20
2023-02-12T13:51:45.060Z,16.70
2023-02-12T13:54:30.256Z,10.70
2023-02-12T13:57:02.128Z,13.00
2023-02-12T13:59:31.950Z,14.90
2023-02-12T14:02:01.640Z,19.50
2023-02-12T14:04:45.311Z,14.10
2023-02-12T14:07:14.595Z,13.20
2023-02-12T14:09:44.953Z,10.20
2023-02-12T14:12:25.488Z,14.30
2023-02-12T14:15:10.242Z,15.50
2023-02-12T14:17:37.222Z,11.00
2023-02-12T14:20:30.120Z,9.20
2023-02-12T14:23:00.605Z,12.70
2023-02-12T14:25:38.131Z,11.50
2023-02-12T14:28:27.154Z,11.00
2023-02-12T14:31:16.203Z,13.30
2023-02-12T14:33:43.917Z,13.50
2023-02-12T14:36:38.517Z,10.80
2023-02-12T14:39:29.694Z,11.90
2023-02-12T14:42:08.931Z,10.50
2023-02-12T14:44:35.724Z,12.60
2023-02-12T14:47:14.516Z,11.00
2023-02-12T14:49:48.632Z,12.00
2023-02-12T14:52:41.373Z,15.80
2023-02-12T14:55:39.742Z,12.90
2023-02-12T14:58:20.193Z,18.80
2023-02-12T15:00:50.641Z,16.60
2023-02-12T15:03:24.126Z,15.40
2023-02-12T15:05:59.212Z,19.10
2023-02-12T15:08:48.856Z,18.00
2023-02-12T15:11:29.073Z,16.80
2023-02-12T15:14:26.728Z,15.50
2023-02-12T15:16:59.961Z,17.10
2023-02-12T15:19:26.651Z,16.50
2023-02-12T15:21:54.349Z,15.70
2023-02-12T15:24:25.805Z,16.20
2023-02-12T15:26:58.438Z,18.40
2023-02-12T15:29:48.607Z,17.30
2023-02-12T15:32:23.535Z,14.30
2023-02-12T15:34:53.972Z,15.90
2023-02-12T15:37:27.045Z,15.30
2023-02-12T15:40:01.638Z,15.40
2023-02-12T15:42:35.706Z,13.80
2023-02-12T15:45:07.848Z,12.80
2023-02-12T15:47:35.191Z,14.30
2023-02-12T15:50:02.588Z,16.20
2023-02-12T15:52:39.340Z,15.40
2023-02-12T15:55:16.273Z,15.80
2023-02-12T15:57:51.480Z,15.40
2023-02-12T16:00:47.393Z,17.00
2023-02-12T16:03:32.966Z,17.50
2023-02-12T16:06:05.765Z,19.40
2023-02-12T16:08:33.834Z,19.70
2023-02-12T16:11:13.161Z,17.10
2023-02-12T16:13:48.149Z,26.00
2023-02-12T16:16:45.123Z,25.30
2023-02-12T16:19:23.512Z,22.80
2023-02-12T16:22:07.957Z,27.80
2023-02-12T16:24:38.408Z,23.80
2023-02-12T16:27:31.094Z,30.70
2023-02-12T16:30:01.729Z,27.60
2023-02-12T16:32:38.876Z,29.50
2023-02-12T16:35:11.669Z,25.80
2023-02-12T16:37:38.383Z,23.50
2023-02-12T16:40:17.297Z,21.40
2023-02-12T16:42:47.174Z,22.00
2023-02-12T16:45:26.955Z,21.40
2023-02-12T16:47:58.791Z,26.30
2023-02-12T16:50:33.705Z,26.60
2023-02-12T16:53:06.226Z,28.70
2023-02-12T16:55:32.846Z,25.20
2023-02-12T16:58:08.306Z,24.20
2023-02-12T17:00:35.244Z,26.90
2023-02-12T17:03:01.794Z,33.30
2023-02-12T17:05:28.855Z,29.10
2023-02-12T17:07:55.614Z,27.30
2023-02-12T17:10:22.235Z,30.00
2023-02-12T17:12:51.687Z,33.10
2023-02-12T17:15:24.228Z,30.40
2023-02-12T17:17:53.832Z,34.80
2023-02-12T17:20:23.136Z,27.60
2023-02-12T17:22:57.038Z,27.20
2023-02-12T17:25:24.897Z,33.50
2023-02-12T17:27:51.735Z,29.20
2023-02-12T17:30:23.852Z,32.00
2023-02-12T17:32:51.463Z,30.00
2023-02-12T17:35:18.699Z,31.60
2023-02-12T17:37:47.489Z,31.00
2023-02-12T17:40:14.370Z,33.20
2023-02-12T17:42:41.439Z,37.70
2023-02-12T17:45:09.587Z,41.10
2023-02-12T17:47:39.272Z,35.30
2023-02-12T17:50:13.088Z,33.10
2023-02-12T17:52:40.147Z,30.00
2023-02-12T17:55:11.024Z,30.80
2023-02-12T17:57:39.070Z,25.70
2023-02-12T18:00:08.252Z,26.50
2023-02-12T18:02:37.952Z,24.90
2023-02-12T18:05:05.141Z,31.30
2023-02-12T18:07:33.875Z,29.90
2023-02-12T18:10:00.685Z,29.60
2023-02-12T18:12:27.590Z,30.90
2023-02-12T18:14:58.930Z,27.40
2023-02-12T18:17:25.794Z,28.20
2023-02-12T18:19:53.026Z,28.00
2023-02-12T18:22:20.754Z,29.00
2023-02-12T18:24:47.724Z,23.10
2023-02-12T18:27:15.301Z,27.70
2023-02-12T18:29:42.224Z,23.60
2023-02-12T18:32:13.895Z,23.30
2023-02-12T18:34:41.465Z,24.10
2023-02-12T18:37:09.633Z,25.60
2023-02-12T18:39:36.291Z,30.40
2023-02-12T18:42:04.105Z,25.50
2023-02-12T18:44:31.661Z,27.80
2023-02-12T18:46:59.464Z,28.70
2023-02-12T18:49:27.656Z,35.80
2023-02-12T18:51:54.689Z,27.60
2023-02-12T18:54:21.736Z,28.10
2023-02-12T18:56:52.113Z,28.60
2023-02-12T18:59:20.353Z,28.80
2023-02-12T19:01:50.005Z,27.80
2023-02-12T19:04:18.793Z,30.70
2023-02-12T19:06:48.733Z,31.30
2023-02-12T19:09:18.681Z,30.60
2023-02-12T19:11:47.479Z,30.80
2023-02-12T19:14:16.740Z,26.40
2023-02-12T19:16:47.477Z,27.30
2023-02-12T19:19:15.649Z,30.20
2023-02-12T19:21:42.490Z,32.30
2023-02-12T19:24:11.832Z,28.40
2023-02-12T19:26:39.407Z,25.30
2023-02-12T19:29:07.310Z,25.70
2023-02-12T19:31:40.436Z,29.20
2023-02-12T19:34:15.380Z,28.00
2023-02-12T19:36:43.861Z,32.90
2023-02-12T19:39:14.569Z,27.30
2023-02-12T19:41:42.871Z,25.70
2023-02-12T19:44:15.360Z,26.00
2023-02-12T19:46:43.694Z,25.40
2023-02-12T19:49:28.045Z,25.20
2023-02-12T19:51:54.860Z,25.70
2023-02-12T19:54:23.074Z,26.40
2023-02-12T19:56:52.298Z,26.80
2023-02-12T19:59:21.497Z,29.10
2023-02-12T20:01:48.938Z,31.10
2023-02-12T20:04:23.167Z,35.70
2023-02-12T20:06:52.938Z,29.10
2023-02-12T20:09:21.026Z,28.20
2023-02-12T20:11:47.892Z,33.20
2023-02-12T20:14:15.168Z,38.30
2023-02-12T20:16:44.248Z,35.50
2023-02-12T20:19:15.603Z,34.00
2023-02-12T20:21:43.581Z,30.60
2023-02-12T20:24:10.560Z,25.40
2023-02-12T20:26:37.818Z,25.00
2023-02-12T20:29:05.517Z,30.20
2023-02-12T20:31:35.852Z,25.50
2023-02-12T20:34:06.542Z,26.40
2023-02-12T20:36:36.445Z,27.80
2023-02-12T20:39:05.163Z,28.90
2023-02-12T20:41:34.339Z,28.90
2023-02-12T20:44:01.438Z,25.40
2023-02-12T20:46:28.195Z,28.20
2023-02-12T20:48:59.738Z,27.60
2023-02-12T20:51:27.365Z,26.00
2023-02-12T20:53:55.023Z,31.10
2023-02-12T20:56:25.052Z,33.20
2023-02-12T20:58:53.068Z,33.80
2023-02-12T21:01:45.024Z,33.40
2023-02-12T21:04:16.002Z,34.20
2023-02-12T21:06:44.046Z,33.60
2023-02-12T21:09:13.952Z,32.50
2023-02-12T21:11:44.622Z,36.80
2023-02-12T21:14:23.221Z,32.60
2023-02-12T21:16:53.703Z,40.00
2023-02-12T21:19:21.139Z,39.30
2023-02-12T21:21:48.066Z,38.50
2023-02-12T21:24:19.535Z,34.50
2023-02-12T21:26:46.406Z,39.10
2023-02-12T21:29:13.886Z,43.20
2023-02-12T21:31:43.096Z,40.80
2023-02-12T21:34:13.719Z,40.20
2023-02-12T21:36:42.399Z,39.50
2023-02-12T21:39:12.562Z,44.10
2023-02-12T21:41:41.168Z,40.20
2023-02-12T21:44:11.756Z,41.80
2023-02-12T21:46:39.334Z,42.50
2023-02-12T21:49:07.491Z,39.70
2023-02-12T21:51:40.602Z,39.60
2023-02-12T21:54:10.137Z,38.90
2023-02-12T21:56:38.496Z,42.90
2023-02-12T21:59:10.800Z,44.30
2023-02-12T22:01:42.073Z,41.50
2023-02-12T22:04:09.545Z,43.90
2023-02-12T22:06:38.506Z,40.60
2023-02-12T22:09:07.466Z,42.40
2023-02-12T22:11:36.164Z,33.50
2023-02-12T22:14:04.394Z,42.30
2023-02-12T22:16:31.512Z,39.60
2023-02-12T22:19:01.161Z,41.60
2023-02-12T22:21:31.003Z,37.80
2023-02-12T22:24:03.948Z,44.10
2023-02-12T22:26:32.408Z,34.50
2023-02-12T22:29:02.567Z,40.30
2023-02-12T22:31:32.262Z,34.40
2023-02-12T22:34:02.272Z,36.10
2023-02-12T22:36:29.674Z,33.10
2023-02-12T22:39:00.310Z,33.00
2023-02-12T22:41:28.387Z,31.80
2023-02-12T22:43:58.446Z,34.00
2023-02-12T22:46:25.432Z,31.40
2023-02-12T22:48:52.266Z,29.30
2023-02-12T22:51:25.310Z,28.40
2023-02-12T22:53:52.196Z,32.00
2023-02-12T22:56:19.433Z,27.60
2023-02-12T22:58:47.215Z,28.70
2023-02-12T23:01:16.873Z,32.80
2023-02-12T23:03:45.084Z,34.30
2023-02-12T23:06:15.009Z,26.80
2023-02-12T23:08:42.250Z,29.60
2023-02-12T23:11:09.395Z,30.10
2023-02-12T23:13:36.404Z,26.10
2023-02-12T23:16:04.007Z,23.30
2023-02-12T23:18:31.398Z,28.90
2023-02-12T23:20:58.926Z,26.40
2023-02-12T23:23:25.856Z,28.10
2023-02-12T23:25:54.020Z,30.10
2023-02-12T23:28:22.035Z,26.90
2023-02-12T23:30:50.588Z,29.80
2023-02-12T23:33:18.744Z,26.80
2023-02-12T23:35:46.198Z,27.50
2023-02-12T23:38:12.820Z,24.60
2023-02-12T23:40:41.284Z,26.60
2023-02-12T23:43:08.492Z,28.50
2023-02-12T23:45:35.292Z,28.10
2023-02-12T23:48:02.096Z,28.10
2023-02-12T23:50:29.051Z,23.90
2023-02-12T23:52:55.655Z,28.20
2023-02-12T23:55:22.470Z,31.60
2023-02-12T23:57:49.922Z,32.80
